sensor_id;sensor_type;location;lat;lon;timestamp;P1;durP1;ratioP1;P2;durP2;ratioP2
62475;SDS011;50739;45.670;11.936;2024-03-25T00:04:57;18.53;;;10.20;;
62475;SDS011;50739;45.670;11.936;2024-03-25T00:09:59;15.73;;;8.67;;
62475;SDS011;50739;45.670;11.936;2024-03-25T00:15:04;18.37;;;9.97;;
62475;SDS011;50739;45.670;11.936;2024-03-25T00:20:07;20.30;;;9.97;;
62475;SDS011;50739;45.670;11.936;2024-03-25T00:25:10;19.25;;;9.63;;
62475;SDS011;50739;45.670;11.936;2024-03-25T00:30:14;18.40;;;9.63;;
62475;SDS011;50739;45.670;11.936;2024-03-25T00:35:16;21.03;;;10.90;;
62475;SDS011;50739;45.670;11.936;2024-03-25T00:40:18;13.77;;;8.43;;
62475;SDS011;50739;45.670;11.936;2024-03-25T00:45:23;15.30;;;8.77;;
62475;SDS011;50739;45.670;11.936;2024-03-25T00:50:26;14.75;;;8.50;;
62475;SDS011;50739;45.670;11.936;2024-03-25T00:55:28;16.95;;;8.50;;
62475;SDS011;50739;45.670;11.936;2024-03-25T01:00:32;16.08;;;8.55;;
62475;SDS011;50739;45.670;11.936;2024-03-25T01:05:35;15.80;;;9.43;;
62475;SDS011;50739;45.670;11.936;2024-03-25T01:10:38;15.13;;;8.48;;
62475;SDS011;50739;45.670;11.936;2024-03-25T01:15:41;16.13;;;8.73;;
62475;SDS011;50739;45.670;11.936;2024-03-25T01:20:44;15.50;;;8.65;;
62475;SDS011;50739;45.670;11.936;2024-03-25T01:25:46;16.38;;;8.48;;
62475;SDS011;50739;45.670;11.936;2024-03-25T01:30:49;12.52;;;8.38;;
62475;SDS011;50739;45.670;11.936;2024-03-25T01:35:52;14.25;;;8.52;;
62475;SDS011;50739;45.670;11.936;2024-03-25T01:41:07;16.15;;;8.43;;
62475;SDS011;50739;45.670;11.936;2024-03-25T01:46:11;13.30;;;8.30;;
62475;SDS011;50739;45.670;11.936;2024-03-25T01:51:13;15.25;;;8.20;;
62475;SDS011;50739;45.670;11.936;2024-03-25T01:56:17;12.80;;;7.68;;
62475;SDS011;50739;45.670;11.936;2024-03-25T02:01:21;11.75;;;7.72;;
62475;SDS011;50739;45.670;11.936;2024-03-25T02:06:24;14.50;;;8.40;;
62475;SDS011;50739;45.670;11.936;2024-03-25T02:11:29;13.63;;;8.17;;
62475;SDS011;50739;45.670;11.936;2024-03-25T02:16:33;12.70;;;7.53;;
62475;SDS011;50739;45.670;11.936;2024-03-25T02:21:35;13.10;;;8.07;;
62475;SDS011;50739;45.670;11.936;2024-03-25T02:26:39;11.45;;;7.95;;
62475;SDS011;50739;45.670;11.936;2024-03-25T02:31:41;13.50;;;8.25;;
62475;SDS011;50739;45.670;11.936;2024-03-25T02:36:43;13.18;;;8.50;;
62475;SDS011;50739;45.670;11.936;2024-03-25T02:41:47;14.15;;;8.63;;
62475;SDS011;50739;45.670;11.936;2024-03-25T02:46:49;12.52;;;8.82;;
62475;SDS011;50739;45.670;11.936;2024-03-25T02:51:51;14.48;;;9.10;;
62475;SDS011;50739;45.670;11.936;2024-03-25T02:56:55;13.05;;;8.80;;
62475;SDS011;50739;45.670;11.936;2024-03-25T03:01:57;12.63;;;8.88;;
62475;SDS011;50739;45.670;11.936;2024-03-25T03:07:00;13.55;;;8.90;;
62475;SDS011;50739;45.670;11.936;2024-03-25T03:12:03;13.02;;;9.18;;
62475;SDS011;50739;45.670;11.936;2024-03-25T03:17:06;13.40;;;9.05;;
62475;SDS011;50739;45.670;11.936;2024-03-25T03:22:08;12.55;;;8.52;;
62475;SDS011;50739;45.670;11.936;2024-03-25T03:27:12;15.50;;;9.40;;
62475;SDS011;50739;45.670;11.936;2024-03-25T03:32:14;13.88;;;9.13;;
62475;SDS011;50739;45.670;11.936;2024-03-25T03:37:16;12.45;;;8.10;;
62475;SDS011;50739;45.670;11.936;2024-03-25T03:42:20;11.43;;;8.10;;
62475;SDS011;50739;45.670;11.936;2024-03-25T03:47:22;11.65;;;7.75;;
62475;SDS011;50739;45.670;11.936;2024-03-25T03:52:24;10.70;;;8.03;;
62475;SDS011;50739;45.670;11.936;2024-03-25T03:57:28;11.83;;;6.97;;
62475;SDS011;50739;45.670;11.936;2024-03-25T04:02:30;11.13;;;6.90;;
62475;SDS011;50739;45.670;11.936;2024-03-25T04:07:32;10.52;;;6.90;;
62475;SDS011;50739;45.670;11.936;2024-03-25T04:12:36;10.73;;;6.95;;
62475;SDS011;50739;45.670;11.936;2024-03-25T04:17:38;12.63;;;7.53;;
62475;SDS011;50739;45.670;11.936;2024-03-25T04:22:41;12.55;;;7.63;;
62475;SDS011;50739;45.670;11.936;2024-03-25T04:27:45;10.00;;;6.88;;
62475;SDS011;50739;45.670;11.936;2024-03-25T04:32:47;9.98;;;6.95;;
62475;SDS011;50739;45.670;11.936;2024-03-25T04:37:49;12.05;;;7.10;;
62475;SDS011;50739;45.670;11.936;2024-03-25T04:42:51;9.32;;;6.60;;
62475;SDS011;50739;45.670;11.936;2024-03-25T04:47:53;10.60;;;7.40;;
62475;SDS011;50739;45.670;11.936;2024-03-25T04:52:54;10.50;;;6.77;;
62475;SDS011;50739;45.670;11.936;2024-03-25T04:57:56;10.97;;;7.33;;
62475;SDS011;50739;45.670;11.936;2024-03-25T05:02:58;10.75;;;7.07;;
62475;SDS011;50739;45.670;11.936;2024-03-25T05:07:59;9.98;;;5.97;;
62475;SDS011;50739;45.670;11.936;2024-03-25T05:13:01;6.95;;;4.68;;
62475;SDS011;50739;45.670;11.936;2024-03-25T05:18:03;6.43;;;4.33;;
62475;SDS011;50739;45.670;11.936;2024-03-25T05:23:04;7.25;;;4.50;;
62475;SDS011;50739;45.670;11.936;2024-03-25T05:28:07;7.43;;;3.90;;
62475;SDS011;50739;45.670;11.936;2024-03-25T05:33:08;6.20;;;4.25;;
62475;SDS011;50739;45.670;11.936;2024-03-25T05:38:09;7.82;;;4.68;;
62475;SDS011;50739;45.670;11.936;2024-03-25T05:43:12;7.03;;;4.72;;
62475;SDS011;50739;45.670;11.936;2024-03-25T05:48:13;7.75;;;4.75;;
62475;SDS011;50739;45.670;11.936;2024-03-25T05:53:14;6.73;;;3.70;;
62475;SDS011;50739;45.670;11.936;2024-03-25T05:58:17;5.10;;;3.53;;
62475;SDS011;50739;45.670;11.936;2024-03-25T06:03:18;5.53;;;2.92;;
62475;SDS011;50739;45.670;11.936;2024-03-25T06:08:20;4.95;;;3.13;;
62475;SDS011;50739;45.670;11.936;2024-03-25T06:13:23;5.28;;;3.65;;
62475;SDS011;50739;45.670;11.936;2024-03-25T06:18:24;8.18;;;4.63;;
62475;SDS011;50739;45.670;11.936;2024-03-25T06:23:25;5.75;;;4.22;;
62475;SDS011;50739;45.670;11.936;2024-03-25T06:28:29;6.15;;;3.70;;
62475;SDS011;50739;45.670;11.936;2024-03-25T06:33:30;4.47;;;3.80;;
62475;SDS011;50739;45.670;11.936;2024-03-25T06:38:50;5.33;;;3.90;;
62475;SDS011;50739;45.670;11.936;2024-03-25T06:43:52;11.77;;;5.83;;
62475;SDS011;50739;45.670;11.936;2024-03-25T06:48:54;10.75;;;5.20;;
62475;SDS011;50739;45.670;11.936;2024-03-25T06:53:55;12.02;;;6.47;;
62475;SDS011;50739;45.670;11.936;2024-03-25T06:58:57;12.90;;;5.85;;
62475;SDS011;50739;45.670;11.936;2024-03-25T07:03:58;10.98;;;5.07;;
62475;SDS011;50739;45.670;11.936;2024-03-25T07:09:00;6.00;;;4.35;;
62475;SDS011;50739;45.670;11.936;2024-03-25T07:14:02;9.30;;;4.03;;
62475;SDS011;50739;45.670;11.936;2024-03-25T07:19:03;7.78;;;3.78;;
62475;SDS011;50739;45.670;11.936;2024-03-25T07:24:05;6.47;;;3.25;;
62475;SDS011;50739;45.670;11.936;2024-03-25T07:29:07;4.53;;;3.28;;
62475;SDS011;50739;45.670;11.936;2024-03-25T07:34:09;5.67;;;3.17;;
62475;SDS011;50739;45.670;11.936;2024-03-25T07:39:10;4.30;;;3.10;;
62475;SDS011;50739;45.670;11.936;2024-03-25T07:44:13;4.45;;;2.70;;
62475;SDS011;50739;45.670;11.936;2024-03-25T07:49:14;4.43;;;2.70;;
62475;SDS011;50739;45.670;11.936;2024-03-25T07:54:15;4.00;;;2.75;;
62475;SDS011;50739;45.670;11.936;2024-03-25T07:59:18;3.37;;;3.00;;
62475;SDS011;50739;45.670;11.936;2024-03-25T08:04:19;3.25;;;2.45;;
62475;SDS011;50739;45.670;11.936;2024-03-25T08:09:20;4.55;;;3.35;;
62475;SDS011;50739;45.670;11.936;2024-03-25T08:14:23;3.60;;;3.10;;
62475;SDS011;50739;45.670;11.936;2024-03-25T08:19:24;4.63;;;3.00;;
62475;SDS011;50739;45.670;11.936;2024-03-25T08:24:25;4.53;;;3.27;;
62475;SDS011;50739;45.670;11.936;2024-03-25T08:29:28;4.77;;;3.67;;
62475;SDS011;50739;45.670;11.936;2024-03-25T08:34:29;4.80;;;3.45;;
62475;SDS011;50739;45.670;11.936;2024-03-25T08:39:31;7.00;;;3.83;;
62475;SDS011;50739;45.670;11.936;2024-03-25T08:44:33;5.90;;;3.53;;
62475;SDS011;50739;45.670;11.936;2024-03-25T08:49:34;4.85;;;3.47;;
62475;SDS011;50739;45.670;11.936;2024-03-25T08:54:35;6.18;;;3.70;;
62475;SDS011;50739;45.670;11.936;2024-03-25T08:59:38;7.72;;;5.05;;
62475;SDS011;50739;45.670;11.936;2024-03-25T09:04:39;20.40;;;11.45;;
62475;SDS011;50739;45.670;11.936;2024-03-25T09:09:40;15.02;;;8.65;;
62475;SDS011;50739;45.670;11.936;2024-03-25T09:15:01;12.53;;;6.30;;
62475;SDS011;50739;45.670;11.936;2024-03-25T09:20:03;6.50;;;3.97;;
62475;SDS011;50739;45.670;11.936;2024-03-25T09:25:05;7.55;;;4.20;;
62475;SDS011;50739;45.670;11.936;2024-03-25T09:30:08;4.60;;;3.28;;
62475;SDS011;50739;45.670;11.936;2024-03-25T09:35:10;4.57;;;3.13;;
62475;SDS011;50739;45.670;11.936;2024-03-25T09:40:11;4.57;;;3.10;;
62475;SDS011;50739;45.670;11.936;2024-03-25T09:45:15;3.90;;;3.27;;
62475;SDS011;50739;45.670;11.936;2024-03-25T09:50:17;2.87;;;2.40;;
62475;SDS011;50739;45.670;11.936;2024-03-25T09:55:20;3.17;;;2.73;;
62475;SDS011;50739;45.670;11.936;2024-03-25T10:00:22;3.95;;;2.75;;
62475;SDS011;50739;45.670;11.936;2024-03-25T10:05:23;3.97;;;2.43;;
62475;SDS011;50739;45.670;11.936;2024-03-25T10:10:25;3.63;;;2.80;;
62475;SDS011;50739;45.670;11.936;2024-03-25T10:15:28;3.75;;;2.45;;
62475;SDS011;50739;45.670;11.936;2024-03-25T10:20:29;2.92;;;2.10;;
62475;SDS011;50739;45.670;11.936;2024-03-25T10:25:30;4.65;;;2.60;;
62475;SDS011;50739;45.670;11.936;2024-03-25T10:30:33;5.27;;;2.87;;
62475;SDS011;50739;45.670;11.936;2024-03-25T10:35:35;3.43;;;2.50;;
62475;SDS011;50739;45.670;11.936;2024-03-25T10:40:38;3.20;;;2.47;;
62475;SDS011;50739;45.670;11.936;2024-03-25T10:45:43;2.75;;;1.80;;
62475;SDS011;50739;45.670;11.936;2024-03-25T10:50:46;4.05;;;2.83;;
62475;SDS011;50739;45.670;11.936;2024-03-25T10:55:48;4.03;;;2.60;;
62475;SDS011;50739;45.670;11.936;2024-03-25T11:00:53;4.77;;;2.80;;
62475;SDS011;50739;45.670;11.936;2024-03-25T11:05:55;4.03;;;2.80;;
62475;SDS011;50739;45.670;11.936;2024-03-25T11:10:56;3.60;;;2.63;;
62475;SDS011;50739;45.670;11.936;2024-03-25T11:15:59;4.80;;;3.20;;
62475;SDS011;50739;45.670;11.936;2024-03-25T11:21:01;6.18;;;3.53;;
62475;SDS011;50739;45.670;11.936;2024-03-25T11:26:03;4.23;;;3.07;;
62475;SDS011;50739;45.670;11.936;2024-03-25T11:31:05;4.90;;;3.30;;
62475;SDS011;50739;45.670;11.936;2024-03-25T11:36:07;8.32;;;3.88;;
62475;SDS011;50739;45.670;11.936;2024-03-25T11:41:09;5.53;;;3.70;;
62475;SDS011;50739;45.670;11.936;2024-03-25T11:46:12;6.45;;;4.28;;
62475;SDS011;50739;45.670;11.936;2024-03-25T11:51:18;6.05;;;4.32;;
62475;SDS011;50739;45.670;11.936;2024-03-25T11:56:20;4.40;;;3.65;;
62475;SDS011;50739;45.670;11.936;2024-03-25T12:01:22;2.42;;;1.98;;
62475;SDS011;50739;45.670;11.936;2024-03-25T12:06:24;3.83;;;2.70;;
62475;SDS011;50739;45.670;11.936;2024-03-25T12:11:25;5.53;;;3.43;;
62475;SDS011;50739;45.670;11.936;2024-03-25T12:16:27;4.95;;;3.75;;
62475;SDS011;50739;45.670;11.936;2024-03-25T12:21:30;5.18;;;3.85;;
62475;SDS011;50739;45.670;11.936;2024-03-25T12:26:32;4.95;;;3.10;;
62475;SDS011;50739;45.670;11.936;2024-03-25T12:31:34;4.10;;;3.40;;
62475;SDS011;50739;45.670;11.936;2024-03-25T12:36:36;4.13;;;3.27;;
62475;SDS011;50739;45.670;11.936;2024-03-25T12:41:37;4.32;;;3.03;;
62475;SDS011;50739;45.670;11.936;2024-03-25T12:46:39;6.32;;;3.60;;
62475;SDS011;50739;45.670;11.936;2024-03-25T12:51:41;4.53;;;2.37;;
62475;SDS011;50739;45.670;11.936;2024-03-25T12:56:42;3.33;;;2.67;;
62475;SDS011;50739;45.670;11.936;2024-03-25T13:01:44;5.30;;;2.30;;
62475;SDS011;50739;45.670;11.936;2024-03-25T13:06:46;3.57;;;2.50;;
62475;SDS011;50739;45.670;11.936;2024-03-25T13:11:47;4.47;;;2.50;;
62475;SDS011;50739;45.670;11.936;2024-03-25T13:16:50;3.55;;;2.50;;
62475;SDS011;50739;45.670;11.936;2024-03-25T13:21:51;2.95;;;2.17;;
62475;SDS011;50739;45.670;11.936;2024-03-25T13:26:52;2.72;;;2.35;;
62475;SDS011;50739;45.670;11.936;2024-03-25T13:31:55;3.33;;;1.80;;
62475;SDS011;50739;45.670;11.936;2024-03-25T13:36:56;3.07;;;2.20;;
62475;SDS011;50739;45.670;11.936;2024-03-25T13:41:57;4.68;;;2.13;;
62475;SDS011;50739;45.670;11.936;2024-03-25T13:47:00;4.80;;;2.25;;
62475;SDS011;50739;45.670;11.936;2024-03-25T13:52:01;3.60;;;2.80;;
62475;SDS011;50739;45.670;11.936;2024-03-25T13:57:04;3.20;;;2.10;;
62475;SDS011;50739;45.670;11.936;2024-03-25T14:02:06;2.25;;;1.80;;
62475;SDS011;50739;45.670;11.936;2024-03-25T14:07:08;2.72;;;1.92;;
62475;SDS011;50739;45.670;11.936;2024-03-25T14:12:09;2.65;;;1.80;;
62475;SDS011;50739;45.670;11.936;2024-03-25T14:17:12;2.28;;;1.83;;
62475;SDS011;50739;45.670;11.936;2024-03-25T14:22:13;4.25;;;2.00;;
62475;SDS011;50739;45.670;11.936;2024-03-25T14:27:14;3.22;;;1.88;;
62475;SDS011;50739;45.670;11.936;2024-03-25T14:32:18;3.42;;;2.47;;
62475;SDS011;50739;45.670;11.936;2024-03-25T14:37:20;3.20;;;2.10;;
62475;SDS011;50739;45.670;11.936;2024-03-25T14:42:21;3.50;;;2.30;;
62475;SDS011;50739;45.670;11.936;2024-03-25T14:47:24;3.65;;;1.90;;
62475;SDS011;50739;45.670;11.936;2024-03-25T14:52:25;3.60;;;2.22;;
62475;SDS011;50739;45.670;11.936;2024-03-25T14:57:27;2.95;;;1.80;;
62475;SDS011;50739;45.670;11.936;2024-03-25T15:02:30;2.92;;;2.30;;
62475;SDS011;50739;45.670;11.936;2024-03-25T15:07:31;3.67;;;2.83;;
62475;SDS011;50739;45.670;11.936;2024-03-25T15:12:32;20.15;;;10.75;;
62475;SDS011;50739;45.670;11.936;2024-03-25T15:17:35;3.17;;;2.78;;
62475;SDS011;50739;45.670;11.936;2024-03-25T15:22:36;5.15;;;3.15;;
62475;SDS011;50739;45.670;11.936;2024-03-25T15:27:38;3.70;;;2.67;;
62475;SDS011;50739;45.670;11.936;2024-03-25T15:32:41;3.08;;;2.75;;
62475;SDS011;50739;45.670;11.936;2024-03-25T15:37:42;3.30;;;2.60;;
62475;SDS011;50739;45.670;11.936;2024-03-25T15:42:43;3.87;;;2.53;;
62475;SDS011;50739;45.670;11.936;2024-03-25T15:47:46;3.40;;;2.80;;
62475;SDS011;50739;45.670;11.936;2024-03-25T15:52:49;3.40;;;2.30;;
62475;SDS011;50739;45.670;11.936;2024-03-25T15:57:52;2.40;;;1.63;;
62475;SDS011;50739;45.670;11.936;2024-03-25T16:02:55;2.58;;;1.52;;
62475;SDS011;50739;45.670;11.936;2024-03-25T16:07:57;2.20;;;1.63;;
62475;SDS011;50739;45.670;11.936;2024-03-25T16:12:58;2.30;;;1.92;;
62475;SDS011;50739;45.670;11.936;2024-03-25T16:18:01;3.50;;;2.50;;
62475;SDS011;50739;45.670;11.936;2024-03-25T16:23:04;2.80;;;1.60;;
62475;SDS011;50739;45.670;11.936;2024-03-25T16:28:05;3.97;;;1.70;;
62475;SDS011;50739;45.670;11.936;2024-03-25T16:33:08;4.20;;;1.73;;
62475;SDS011;50739;45.670;11.936;2024-03-25T16:38:09;2.55;;;1.83;;
62475;SDS011;50739;45.670;11.936;2024-03-25T16:43:10;2.57;;;1.73;;
62475;SDS011;50739;45.670;11.936;2024-03-25T16:48:13;3.25;;;2.20;;
62475;SDS011;50739;45.670;11.936;2024-03-25T16:53:14;3.75;;;2.80;;
62475;SDS011;50739;45.670;11.936;2024-03-25T16:58:16;6.63;;;2.22;;
62475;SDS011;50739;45.670;11.936;2024-03-25T17:03:19;3.38;;;1.83;;
62475;SDS011;50739;45.670;11.936;2024-03-25T17:08:20;4.13;;;2.75;;
62475;SDS011;50739;45.670;11.936;2024-03-25T17:13:22;11.40;;;5.55;;
62475;SDS011;50739;45.670;11.936;2024-03-25T17:18:24;6.93;;;6.05;;
62475;SDS011;50739;45.670;11.936;2024-03-25T17:23:26;4.28;;;2.67;;
62475;SDS011;50739;45.670;11.936;2024-03-25T17:28:27;4.20;;;2.40;;
62475;SDS011;50739;45.670;11.936;2024-03-25T17:33:30;4.63;;;3.10;;
62475;SDS011;50739;45.670;11.936;2024-03-25T17:38:31;6.22;;;3.38;;
62475;SDS011;50739;45.670;11.936;2024-03-25T17:43:33;4.68;;;3.47;;
62475;SDS011;50739;45.670;11.936;2024-03-25T17:48:36;5.60;;;3.73;;
62475;SDS011;50739;45.670;11.936;2024-03-25T17:53:37;7.97;;;4.45;;
62475;SDS011;50739;45.670;11.936;2024-03-25T17:58:38;7.73;;;4.50;;
62475;SDS011;50739;45.670;11.936;2024-03-25T18:03:41;5.35;;;3.63;;
62475;SDS011;50739;45.670;11.936;2024-03-25T18:08:43;6.13;;;4.03;;
62475;SDS011;50739;45.670;11.936;2024-03-25T18:13:44;6.40;;;3.67;;
62475;SDS011;50739;45.670;11.936;2024-03-25T18:18:47;7.30;;;3.90;;
62475;SDS011;50739;45.670;11.936;2024-03-25T18:23:48;5.50;;;4.00;;
62475;SDS011;50739;45.670;11.936;2024-03-25T18:28:49;5.45;;;4.28;;
62475;SDS011;50739;45.670;11.936;2024-03-25T18:33:52;6.75;;;4.30;;
62475;SDS011;50739;45.670;11.936;2024-03-25T18:38:54;9.05;;;5.13;;
62475;SDS011;50739;45.670;11.936;2024-03-25T18:43:55;12.70;;;6.72;;
62475;SDS011;50739;45.670;11.936;2024-03-25T18:48:58;7.57;;;5.85;;
62475;SDS011;50739;45.670;11.936;2024-03-25T18:53:59;12.93;;;7.43;;
62475;SDS011;50739;45.670;11.936;2024-03-25T18:59:00;16.15;;;8.02;;
62475;SDS011;50739;45.670;11.936;2024-03-25T19:04:03;13.27;;;6.43;;
62475;SDS011;50739;45.670;11.936;2024-03-25T19:09:05;14.53;;;8.20;;
62475;SDS011;50739;45.670;11.936;2024-03-25T19:14:07;15.77;;;9.00;;
62475;SDS011;50739;45.670;11.936;2024-03-25T19:19:10;9.93;;;7.70;;
62475;SDS011;50739;45.670;11.936;2024-03-25T19:24:11;14.35;;;8.45;;
62475;SDS011;50739;45.670;11.936;2024-03-25T19:29:12;15.27;;;8.93;;
62475;SDS011;50739;45.670;11.936;2024-03-25T19:34:15;17.03;;;8.77;;
62475;SDS011;50739;45.670;11.936;2024-03-25T19:39:16;13.10;;;8.73;;
62475;SDS011;50739;45.670;11.936;2024-03-25T19:44:18;10.97;;;7.33;;
62475;SDS011;50739;45.670;11.936;2024-03-25T19:49:20;12.10;;;7.97;;
62475;SDS011;50739;45.670;11.936;2024-03-25T19:54:22;11.52;;;8.20;;
62475;SDS011;50739;45.670;11.936;2024-03-25T19:59:23;14.30;;;9.30;;
62475;SDS011;50739;45.670;11.936;2024-03-25T20:04:26;14.07;;;9.63;;
62475;SDS011;50739;45.670;11.936;2024-03-25T20:09:27;15.05;;;9.23;;
62475;SDS011;50739;45.670;11.936;2024-03-25T20:14:29;13.40;;;9.00;;
62475;SDS011;50739;45.670;11.936;2024-03-25T20:19:32;16.13;;;9.10;;
62475;SDS011;50739;45.670;11.936;2024-03-25T20:24:33;14.25;;;9.75;;
62475;SDS011;50739;45.670;11.936;2024-03-25T20:29:34;14.93;;;9.93;;
62475;SDS011;50739;45.670;11.936;2024-03-25T20:34:37;17.10;;;10.67;;
62475;SDS011;50739;45.670;11.936;2024-03-25T20:39:38;16.03;;;10.50;;
62475;SDS011;50739;45.670;11.936;2024-03-25T20:44:42;18.60;;;10.87;;
62475;SDS011;50739;45.670;11.936;2024-03-25T20:49:44;15.18;;;10.95;;
62475;SDS011;50739;45.670;11.936;2024-03-25T20:54:46;17.53;;;11.07;;
62475;SDS011;50739;45.670;11.936;2024-03-25T20:59:47;17.20;;;10.60;;
62475;SDS011;50739;45.670;11.936;2024-03-25T21:04:50;17.55;;;10.85;;
62475;SDS011;50739;45.670;11.936;2024-03-25T21:09:51;15.87;;;10.93;;
62475;SDS011;50739;45.670;11.936;2024-03-25T21:14:52;17.43;;;11.80;;
62475;SDS011;50739;45.670;11.936;2024-03-25T21:19:55;18.95;;;12.57;;
62475;SDS011;50739;45.670;11.936;2024-03-25T21:24:56;18.93;;;12.10;;
62475;SDS011;50739;45.670;11.936;2024-03-25T21:29:58;20.53;;;13.23;;
62475;SDS011;50739;45.670;11.936;2024-03-25T21:35:01;18.55;;;12.57;;
62475;SDS011;50739;45.670;11.936;2024-03-25T21:40:02;17.97;;;13.17;;
62475;SDS011;50739;45.670;11.936;2024-03-25T21:45:05;17.17;;;12.13;;
62475;SDS011;50739;45.670;11.936;2024-03-25T21:50:08;15.00;;;11.60;;
62475;SDS011;50739;45.670;11.936;2024-03-25T21:55:10;16.85;;;11.65;;
62475;SDS011;50739;45.670;11.936;2024-03-25T22:00:11;21.40;;;13.02;;
62475;SDS011;50739;45.670;11.936;2024-03-25T22:05:15;18.55;;;12.35;;
62475;SDS011;50739;45.670;11.936;2024-03-25T22:10:16;16.45;;;12.13;;
62475;SDS011;50739;45.670;11.936;2024-03-25T22:15:18;19.10;;;13.05;;
62475;SDS011;50739;45.670;11.936;2024-03-25T22:20:21;21.30;;;14.40;;
62475;SDS011;50739;45.670;11.936;2024-03-25T22:25:22;20.77;;;14.43;;
62475;SDS011;50739;45.670;11.936;2024-03-25T22:30:23;19.10;;;13.77;;
62475;SDS011;50739;45.670;11.936;2024-03-25T22:35:26;21.13;;;14.47;;
62475;SDS011;50739;45.670;11.936;2024-03-25T22:40:28;21.38;;;14.18;;
62475;SDS011;50739;45.670;11.936;2024-03-25T22:45:29;17.85;;;12.68;;
62475;SDS011;50739;45.670;11.936;2024-03-25T22:50:32;17.60;;;11.60;;
62475;SDS011;50739;45.670;11.936;2024-03-25T22:55:33;16.13;;;11.30;;
62475;SDS011;50739;45.670;11.936;2024-03-25T23:00:34;14.52;;;11.55;;
62475;SDS011;50739;45.670;11.936;2024-03-25T23:05:37;14.40;;;11.15;;
62475;SDS011;50739;45.670;11.936;2024-03-25T23:10:39;13.90;;;10.57;;
62475;SDS011;50739;45.670;11.936;2024-03-25T23:15:40;12.93;;;10.40;;
62475;SDS011;50739;45.670;11.936;2024-03-25T23:20:43;12.82;;;9.88;;
62475;SDS011;50739;45.670;11.936;2024-03-25T23:25:46;14.90;;;10.25;;
62475;SDS011;50739;45.670;11.936;2024-03-25T23:30:47;13.38;;;9.77;;
62475;SDS011;50739;45.670;11.936;2024-03-25T23:35:50;14.73;;;10.02;;
62475;SDS011;50739;45.670;11.936;2024-03-25T23:40:51;13.10;;;9.50;;
62475;SDS011;50739;45.670;11.936;2024-03-25T23:45:53;14.27;;;9.82;;
62475;SDS011;50739;45.670;11.936;2024-03-25T23:50:56;16.60;;;10.20;;
62475;SDS011;50739;45.670;11.936;2024-03-25T23:55:57;18.40;;;10.43;;
